Time;durP1;ratioP1;P1;durP2;ratioP2;P2;SDS_P1;SDS_P2;PMS_P1;PMS_P2;Temp;Humidity;BMP_temperature;BMP_pressure;BME280_temperature;BME280_humidity;BME280_pressure;Samples;Min_cycle;Max_cycle;Signal;HPM_P1;HPM_P2
2022/10/21 00:01:04;;;;;;;22.95;16.75;;;5.40;99.90;;;;;;6202205;23;20673;-86
2022/10/21 00:03:31;;;;;;;19.08;15.73;;;5.50;99.90;;;;;;6105451;23;20625;-88
2022/10/21 00:06:03;;;;;;;28.73;19.75;;;5.40;99.90;;;;;;6109143;23;20179;-90
2022/10/21 00:08:32;;;;;;;23.20;17.70;;;5.30;99.90;;;;;;6107684;23;20186;-89
2022/10/21 00:11:06;;;;;;;28.63;19.02;;;5.20;99.90;;;;;;6085897;22;20213;-87
2022/10/21 00:13:35;;;;;;;21.50;16.20;;;5.20;99.90;;;;;;6108948;23;20172;-88
2022/10/21 00:16:07;;;;;;;26.52;18.40;;;5.30;99.90;;;;;;6106585;23;20186;-85
2022/10/21 00:18:35;;;;;;;27.85;18.02;;;5.30;99.90;;;;;;6084534;23;20189;-87
2022/10/21 00:23:48;;;;;;;24.83;16.55;;;5.20;99.90;;;;;;6136586;23;20202;-86
2022/10/21 00:26:17;;;;;;;26.33;17.83;;;5.10;99.90;;;;;;6147806;23;20163;-84
2022/10/21 00:28:44;;;;;;;30.17;20.20;;;5.10;99.90;;;;;;6144792;23;20182;-84
2022/10/21 00:31:13;;;;;;;24.38;18.65;;;5.10;99.90;;;;;;6112262;23;20220;-86
2022/10/21 00:33:43;;;;;;;29.77;19.80;;;5.20;99.90;;;;;;6136833;23;20179;-84
2022/10/21 00:36:14;;;;;;;24.38;18.30;;;5.10;99.90;;;;;;6133611;23;20436;-86
2022/10/21 00:38:45;;;;;;;32.08;20.40;;;5.00;99.90;;;;;;6106797;23;20192;-85
2022/10/21 00:41:14;;;;;;;25.30;18.02;;;5.00;99.90;;;;;;6132291;23;20182;-86
2022/10/21 00:44:00;;;;;;;25.65;18.55;;;5.10;99.90;;;;;;6105945;23;20251;-86
2022/10/21 00:46:41;;;;;;;30.15;18.70;;;5.10;99.90;;;;;;6148135;23;20174;-85
2022/10/21 00:49:26;;;;;;;25.75;19.77;;;5.00;99.90;;;;;;6146721;23;20208;-83
2022/10/21 00:51:58;;;;;;;25.98;19.92;;;5.10;99.90;;;;;;6131850;23;20177;-84
2022/10/21 00:54:28;;;;;;;28.38;19.70;;;5.20;99.90;;;;;;6106676;23;20705;-85
2022/10/21 00:56:57;;;;;;;22.92;20.02;;;5.20;99.90;;;;;;6131105;23;20508;-88
2022/10/21 00:59:30;;;;;;;23.80;18.42;;;5.30;99.90;;;;;;6136499;23;20212;-88
2022/10/21 01:01:58;;;;;;;27.80;18.95;;;5.30;99.90;;;;;;6107332;23;20182;-89
2022/10/21 01:04:28;;;;;;;26.88;17.42;;;5.40;99.90;;;;;;6135865;23;20208;-84
2022/10/21 01:07:01;;;;;;;31.13;20.25;;;5.40;99.90;;;;;;6138265;23;20166;-87
2022/10/21 01:09:33;;;;;;;28.00;19.55;;;5.50;99.90;;;;;;6108036;23;20269;-87
2022/10/21 01:12:07;;;;;;;29.52;18.70;;;5.50;99.90;;;;;;6133033;23;20525;-89
2022/10/21 01:14:48;;;;;;;27.58;18.42;;;5.50;99.90;;;;;;6134623;23;20182;-88
2022/10/21 01:17:26;;;;;;;31.73;19.60;;;5.60;99.90;;;;;;6107889;23;20182;-87
2022/10/21 01:20:55;;;;;;;27.73;19.40;;;5.60;99.90;;;;;;6110673;23;20163;-89
2022/10/21 01:23:56;;;;;;;27.42;18.10;;;5.70;99.90;;;;;;6103411;23;20245;-87
2022/10/21 01:26:28;;;;;;;26.45;18.50;;;5.70;99.90;;;;;;6104284;23;20413;-88
2022/10/21 01:29:21;;;;;;;27.05;18.27;;;5.80;99.90;;;;;;6100829;23;20171;-83
2022/10/21 01:31:55;;;;;;;24.00;17.08;;;5.70;99.90;;;;;;6098554;23;20402;-87
2022/10/21 01:34:25;;;;;;;26.90;17.65;;;5.70;99.90;;;;;;6098571;23;20765;-88
2022/10/21 01:37:30;;;;;;;23.65;17.83;;;5.70;99.90;;;;;;6099061;23;20198;-83
2022/10/21 01:40:24;;;;;;;28.30;18.67;;;5.70;99.90;;;;;;6099038;23;20189;-89
2022/10/21 01:43:21;;;;;;;24.20;18.45;;;5.70;99.90;;;;;;6102468;23;20193;-85
2022/10/21 01:45:53;;;;;;;29.60;21.15;;;5.70;99.90;;;;;;6102668;23;20199;-86
2022/10/21 01:48:27;;;;;;;29.13;20.60;;;5.70;99.90;;;;;;6106418;23;20206;-86
2022/10/21 01:51:05;;;;;;;24.60;18.75;;;5.80;99.90;;;;;;6091188;23;20207;-89
2022/10/21 01:53:46;;;;;;;28.10;19.08;;;5.80;99.90;;;;;;6116628;23;20177;-88
2022/10/21 01:56:15;;;;;;;26.15;18.85;;;5.80;99.90;;;;;;6105284;23;20190;-86
2022/10/21 01:58:46;;;;;;;25.17;17.65;;;5.80;99.90;;;;;;6105767;23;20193;-89
2022/10/21 02:01:14;;;;;;;23.63;18.00;;;5.70;99.90;;;;;;6111551;23;20193;-87
2022/10/21 02:03:47;;;;;;;29.25;20.45;;;5.70;99.90;;;;;;6111235;23;20186;-90
2022/10/21 02:06:16;;;;;;;26.90;18.80;;;5.70;99.90;;;;;;6085137;23;20194;-85
2022/10/21 02:08:44;;;;;;;25.80;18.90;;;5.70;99.90;;;;;;6106697;23;20194;-86
2022/10/21 02:11:11;;;;;;;32.55;18.65;;;5.80;99.90;;;;;;6108044;23;20278;-86
2022/10/21 02:13:51;;;;;;;29.98;19.95;;;5.90;99.90;;;;;;6109816;23;20242;-88
2022/10/21 02:16:22;;;;;;;25.38;17.90;;;5.80;99.90;;;;;;6106525;23;20606;-88
2022/10/21 02:18:51;;;;;;;20.48;17.73;;;5.70;99.90;;;;;;6106188;23;20478;-88
2022/10/21 02:21:23;;;;;;;23.73;17.05;;;5.90;99.90;;;;;;6101658;23;20179;-86
2022/10/21 02:24:10;;;;;;;27.80;18.85;;;6.00;99.90;;;;;;6222072;23;20244;-86
2022/10/21 02:26:37;;;;;;;25.42;19.00;;;6.10;99.90;;;;;;6254853;23;20191;-89
2022/10/21 02:29:06;;;;;;;25.60;18.02;;;6.10;99.90;;;;;;6254160;23;20183;-85
2022/10/21 02:31:49;;;;;;;26.60;18.85;;;6.20;99.90;;;;;;6256485;23;20187;-86
2022/10/21 02:34:16;;;;;;;25.83;17.65;;;6.20;99.90;;;;;;6257324;23;20176;-87
2022/10/21 02:36:57;;;;;;;21.15;16.13;;;6.30;99.90;;;;;;6230194;23;20242;-85
2022/10/21 02:39:33;;;;;;;24.05;17.65;;;6.30;99.90;;;;;;6205670;23;20171;-87
2022/10/21 02:42:05;;;;;;;22.60;16.80;;;6.40;99.90;;;;;;6232249;23;20179;-88
2022/10/21 02:44:44;;;;;;;22.73;15.68;;;6.50;99.90;;;;;;6237934;23;20210;-85
2022/10/21 02:47:11;;;;;;;24.10;17.40;;;6.60;99.90;;;;;;6259762;23;20175;-85
2022/10/21 02:49:38;;;;;;;24.55;16.30;;;6.60;99.90;;;;;;6256343;23;20187;-87
2022/10/21 02:52:05;;;;;;;21.98;17.10;;;6.60;99.90;;;;;;6254807;23;20198;-83
2022/10/21 02:54:32;;;;;;;21.05;15.32;;;6.60;99.90;;;;;;6258240;23;20249;-83
2022/10/21 02:56:58;;;;;;;22.50;17.48;;;6.50;99.90;;;;;;6256456;23;20184;-87
2022/10/21 02:59:26;;;;;;;27.90;18.23;;;6.30;99.90;;;;;;6256746;23;20241;-86
2022/10/21 03:01:54;;;;;;;26.25;17.83;;;6.30;99.90;;;;;;6256943;23;20175;-85
2022/10/21 03:04:21;;;;;;;21.75;16.75;;;6.40;99.90;;;;;;6256204;23;20255;-88
2022/10/21 03:06:52;;;;;;;23.50;17.35;;;6.50;99.90;;;;;;6255225;23;20298;-87
2022/10/21 03:09:19;;;;;;;26.35;18.65;;;6.40;99.90;;;;;;6254586;23;20426;-86
2022/10/21 03:11:46;;;;;;;20.33;16.08;;;6.40;99.90;;;;;;6255939;23;20206;-84
2022/10/21 03:14:13;;;;;;;19.33;16.00;;;6.50;99.90;;;;;;6256925;23;20183;-86
2022/10/21 03:16:41;;;;;;;23.20;17.77;;;6.70;99.90;;;;;;6257464;23;20421;-86
2022/10/21 03:19:10;;;;;;;23.67;16.92;;;6.70;99.90;;;;;;6230646;23;20234;-88
2022/10/21 03:21:37;;;;;;;25.30;17.65;;;6.70;99.90;;;;;;6256483;23;20233;-85
2022/10/21 03:24:05;;;;;;;31.00;17.67;;;6.50;99.90;;;;;;6137466;22;20187;-85
2022/10/21 03:26:59;;;;;;;23.55;18.05;;;6.60;99.90;;;;;;6147851;22;20216;-87
2022/10/21 03:29:26;;;;;;;26.27;18.70;;;6.50;99.90;;;;;;6148640;23;20303;-85
2022/10/21 03:31:58;;;;;;;20.58;15.27;;;6.50;99.90;;;;;;6166699;23;20170;-88
2022/10/21 03:34:27;;;;;;;26.85;18.73;;;6.30;99.90;;;;;;6144103;23;20229;-88
2022/10/21 03:36:55;;;;;;;23.70;17.42;;;6.40;99.90;;;;;;6141095;23;20190;-87
2022/10/21 03:41:58;;;;;;;21.17;16.88;;;6.50;99.90;;;;;;6087724;22;20218;-87
2022/10/21 03:44:24;;;;;;;22.05;16.00;;;6.50;99.90;;;;;;6089602;23;20172;-87
2022/10/21 03:46:52;;;;;;;24.67;17.35;;;6.50;99.90;;;;;;6085623;23;20200;-86
2022/10/21 03:49:20;;;;;;;21.85;15.73;;;6.70;99.90;;;;;;6073959;23;20187;-85
2022/10/21 03:51:49;;;;;;;23.40;16.98;;;6.80;99.90;;;;;;6051300;23;20209;-87
2022/10/21 03:54:20;;;;;;;22.23;15.88;;;6.90;99.90;;;;;;6048959;23;20457;-87
2022/10/21 03:56:48;;;;;;;22.13;16.35;;;7.20;99.90;;;;;;6074984;23;20183;-88
2022/10/21 03:59:15;;;;;;;19.95;14.23;;;7.20;99.90;;;;;;6073561;23;20234;-87
2022/10/21 04:01:43;;;;;;;21.00;15.30;;;7.20;99.90;;;;;;6026198;23;20254;-86
2022/10/21 04:04:10;;;;;;;21.55;15.18;;;7.20;99.90;;;;;;6071076;23;20246;-86
2022/10/21 04:06:38;;;;;;;19.77;13.35;;;7.40;99.90;;;;;;6070727;23;20414;-86
2022/10/21 04:09:05;;;;;;;17.88;14.88;;;7.40;99.90;;;;;;6070872;23;20175;-85
2022/10/21 04:11:34;;;;;;;23.15;14.32;;;7.50;99.90;;;;;;6072321;23;20188;-85
2022/10/21 04:14:03;;;;;;;21.90;14.50;;;7.50;99.90;;;;;;6070072;23;20712;-86
2022/10/21 04:16:32;;;;;;;22.65;15.07;;;7.60;99.90;;;;;;6071949;23;20184;-88
2022/10/21 04:19:00;;;;;;;21.25;14.27;;;7.70;99.90;;;;;;6072392;23;20187;-85
2022/10/21 04:21:28;;;;;;;15.40;11.55;;;7.70;99.90;;;;;;6071760;23;20230;-85
2022/10/21 04:23:55;;;;;;;15.85;12.93;;;7.80;99.90;;;;;;6026036;23;20259;-85
2022/10/21 04:26:21;;;;;;;17.10;13.05;;;8.00;99.90;;;;;;6072366;23;20199;-85
2022/10/21 04:28:50;;;;;;;17.42;11.98;;;8.00;99.90;;;;;;6048310;23;20188;-87
2022/10/21 04:31:17;;;;;;;20.73;13.10;;;8.10;99.90;;;;;;6073014;23;20253;-87
2022/10/21 04:33:47;;;;;;;19.23;12.27;;;8.00;99.90;;;;;;6074000;23;20232;-86
2022/10/21 04:36:16;;;;;;;16.23;12.50;;;8.20;99.90;;;;;;6074365;23;20460;-87
2022/10/21 04:38:48;;;;;;;23.67;13.25;;;8.40;99.90;;;;;;6052667;23;20164;-88
2022/10/21 04:41:16;;;;;;;14.30;10.68;;;8.40;99.90;;;;;;6079650;23;20380;-88
2022/10/21 04:43:43;;;;;;;16.33;11.82;;;8.40;99.90;;;;;;6049717;23;20218;-86
2022/10/21 04:46:15;;;;;;;12.02;8.68;;;8.50;99.90;;;;;;6053330;23;20203;-83
2022/10/21 04:48:42;;;;;;;15.27;11.35;;;8.60;99.90;;;;;;6076165;23;20245;-84
2022/10/21 04:51:15;;;;;;;12.27;9.90;;;8.60;99.90;;;;;;6050438;23;20164;-85
2022/10/21 04:54:05;;;;;;;12.40;10.35;;;8.70;99.90;;;;;;6055774;23;20163;-87
2022/10/21 04:56:41;;;;;;;9.88;8.65;;;8.70;99.90;;;;;;6080732;23;20176;-88
2022/10/21 04:59:10;;;;;;;14.13;10.18;;;8.80;99.90;;;;;;6178614;23;20202;-85
2022/10/21 05:01:39;;;;;;;13.45;8.25;;;9.00;99.90;;;;;;6078658;23;20606;-89
2022/10/21 05:04:14;;;;;;;12.55;8.68;;;9.20;99.90;;;;;;6169744;23;20203;-91
2022/10/21 05:06:47;;;;;;;9.13;8.20;;;9.10;99.90;;;;;;6030721;23;20203;-87
2022/10/21 05:09:21;;;;;;;10.40;8.38;;;9.10;99.90;;;;;;6055284;23;20184;-89
2022/10/21 05:11:50;;;;;;;10.65;8.70;;;9.20;99.90;;;;;;6058205;23;20438;-89
2022/10/21 05:14:21;;;;;;;10.65;8.43;;;9.20;99.90;;;;;;6060596;23;20172;-88
2022/10/21 05:16:49;;;;;;;9.40;8.25;;;9.20;99.90;;;;;;6124037;22;20194;-87
2022/10/21 05:19:18;;;;;;;11.80;9.02;;;9.30;99.90;;;;;;6187808;22;20273;-87
2022/10/21 05:32:14;;;;;;;11.60;8.88;;;9.60;99.90;;;;;;6114323;23;20151;-88
2022/10/21 05:40:09;;;;;;;10.70;8.10;;;9.90;99.90;;;;;;6140233;23;20229;-85
2022/10/21 05:50:31;;;;;;;7.13;5.18;;;10.50;99.90;;;;;;6119351;23;21289;-86
2022/10/21 05:52:58;;;;;;;10.27;5.50;;;10.60;99.90;;;;;;6166316;23;20203;-85
2022/10/21 05:55:34;;;;;;;5.13;4.45;;;10.70;99.90;;;;;;6174112;23;20393;-86
2022/10/21 06:06:32;;;;;;;7.90;6.43;;;11.10;99.90;;;;;;6158093;23;20181;-88
2022/10/21 06:11:45;;;;;;;8.50;6.15;;;10.70;99.90;;;;;;6204577;22;20260;-89
2022/10/21 06:19:34;;;;;;;11.05;8.05;;;10.00;99.90;;;;;;6136395;23;20194;-88
2022/10/21 06:22:02;;;;;;;12.85;8.88;;;9.80;99.90;;;;;;6149093;23;20185;-88
2022/10/21 06:29:54;;;;;;;11.07;8.52;;;9.50;99.90;;;;;;6144021;23;20476;-90
2022/10/21 06:34:59;;;;;;;11.35;8.02;;;9.30;99.90;;;;;;6279479;22;20211;-87
2022/10/21 06:37:27;;;;;;;14.80;7.82;;;9.10;99.90;;;;;;6156459;22;20511;-88
2022/10/21 06:39:55;;;;;;;10.38;7.72;;;8.90;99.90;;;;;;6202701;22;20192;-89
2022/10/21 06:45:08;;;;;;;7.55;6.65;;;8.80;99.90;;;;;;6195738;22;20204;-89
2022/10/21 06:52:53;;;;;;;9.98;6.68;;;9.00;99.90;;;;;;6197580;22;20207;-89
2022/10/21 06:58:10;;;;;;;9.57;7.88;;;9.30;99.90;;;;;;6134919;23;20211;-90
2022/10/21 07:00:37;;;;;;;9.07;7.57;;;9.30;99.90;;;;;;6145298;23;20170;-88
2022/10/21 07:05:58;;;;;;;8.25;7.43;;;9.40;99.90;;;;;;6160542;23;20209;-89
2022/10/21 07:08:38;;;;;;;11.05;7.28;;;9.50;99.90;;;;;;6119836;22;20529;-86
2022/10/21 07:14:00;;;;;;;9.07;7.50;;;9.50;99.90;;;;;;6171399;22;20231;-89
2022/10/21 07:24:35;;;;;;;10.18;6.88;;;10.10;99.90;;;;;;6130692;23;20197;-85
2022/10/21 07:27:07;;;;;;;10.23;7.00;;;10.20;99.90;;;;;;6136744;22;20204;-88
2022/10/21 07:32:05;;;;;;;11.40;7.43;;;10.50;99.90;;;;;;6140340;23;20197;-87
2022/10/21 07:34:32;;;;;;;10.10;7.40;;;10.60;99.90;;;;;;6136857;22;20208;-87
2022/10/21 07:36:59;;;;;;;9.50;6.90;;;10.70;99.90;;;;;;6147730;23;20607;-90
2022/10/21 07:44:52;;;;;;;9.10;7.22;;;11.30;99.90;;;;;;6135362;23;20416;-90
2022/10/21 07:47:20;;;;;;;9.45;6.70;;;11.50;99.90;;;;;;6140830;23;20201;-89
2022/10/21 07:52:29;;;;;;;13.57;8.00;;;11.40;99.90;;;;;;6116067;23;20205;-89
2022/10/21 07:57:37;;;;;;;9.00;6.15;;;11.80;99.90;;;;;;6131462;23;20197;-89
2022/10/21 08:00:06;;;;;;;9.38;6.50;;;11.80;99.90;;;;;;6168092;23;20229;-86
2022/10/21 08:02:34;;;;;;;11.98;6.57;;;11.70;99.90;;;;;;6139369;23;20178;-87
2022/10/21 08:05:07;;;;;;;11.00;6.95;;;11.80;99.90;;;;;;6142276;22;20261;-88
2022/10/21 08:07:34;;;;;;;9.02;6.65;;;11.90;99.90;;;;;;6141509;23;20475;-89
2022/10/21 08:10:03;;;;;;;7.28;6.10;;;12.20;99.90;;;;;;6140654;23;20215;-86
2022/10/21 08:12:30;;;;;;;8.80;5.93;;;12.40;99.90;;;;;;6147709;23;20234;-89
2022/10/21 08:14:58;;;;;;;11.30;6.20;;;12.60;99.90;;;;;;6115528;22;20504;-86
2022/10/21 08:17:42;;;;;;;9.32;6.40;;;12.70;99.90;;;;;;6259809;22;20203;-89
2022/10/21 08:20:09;;;;;;;9.07;6.78;;;12.80;99.90;;;;;;6167673;22;20502;-87
2022/10/21 08:22:39;;;;;;;6.57;5.50;;;12.80;99.90;;;;;;6299101;22;20162;-89
2022/10/21 08:25:07;;;;;;;7.63;5.80;;;12.90;99.90;;;;;;6278871;22;20208;-84
2022/10/21 08:27:34;;;;;;;8.23;5.40;;;13.10;99.90;;;;;;6217406;22;20209;-88
2022/10/21 08:30:02;;;;;;;6.20;5.55;;;12.90;99.90;;;;;;6164667;22;20191;-87
2022/10/21 08:37:58;;;;;;;12.05;6.18;;;12.50;99.90;;;;;;6173708;23;20157;-87
2022/10/21 08:40:33;;;;;;;6.70;5.32;;;12.40;99.90;;;;;;6174453;23;20177;-87
2022/10/21 08:43:07;;;;;;;6.70;4.95;;;12.30;99.90;;;;;;6171511;22;20201;-88
2022/10/21 08:53:52;;;;;;;6.13;5.43;;;13.00;99.90;;;;;;6095845;23;20194;-88
2022/10/21 08:56:21;;;;;;;6.07;5.30;;;13.50;99.90;;;;;;6166389;22;21220;-90
2022/10/21 08:58:53;;;;;;;10.18;5.32;;;13.70;99.90;;;;;;6269550;22;20216;-85
2022/10/21 09:12:42;;;;;;;6.90;5.55;;;13.50;99.90;;;;;;6120847;23;20182;-88
2022/10/21 09:23:41;;;;;;;6.55;4.95;;;13.60;99.90;;;;;;6193790;22;20248;-87
2022/10/21 09:28:45;;;;;;;8.80;5.35;;;13.80;99.90;;;;;;6119742;23;20197;-90
2022/10/21 09:31:16;;;;;;;7.25;5.53;;;13.80;99.90;;;;;;6168651;22;20187;-88
2022/10/21 10:01:02;;;;;;;9.40;6.20;;;16.00;99.90;;;;;;6110602;23;21789;-86
2022/10/21 10:14:26;;;;;;;11.50;4.37;;;16.70;99.90;;;;;;6153337;23;20421;-88
2022/10/21 10:27:25;;;;;;;6.70;3.90;;;17.20;99.90;;;;;;6147889;23;20466;-92
2022/10/21 10:29:55;;;;;;;9.20;3.70;;;17.00;99.90;;;;;;6238277;22;20493;-88
2022/10/21 10:32:27;;;;;;;4.90;3.60;;;16.90;99.90;;;;;;6142042;22;20437;-89
2022/10/21 10:51:31;;;;;;;5.67;3.80;;;17.70;99.90;;;;;;6108661;23;20501;-86
2022/10/21 11:04:50;;;;;;;6.93;4.83;;;18.30;99.90;;;;;;6102312;23;20456;-87
2022/10/21 11:07:46;;;;;;;3.90;3.60;;;18.10;99.90;;;;;;6096686;23;20448;-92
2022/10/21 11:18:38;;;;;;;6.20;4.00;;;18.00;99.90;;;;;;6101717;23;20440;-86
2022/10/21 11:21:16;;;;;;;3.70;3.40;;;17.90;99.90;;;;;;6150003;22;20590;-87
2022/10/21 11:37:35;;;;;;;5.77;4.43;;;17.40;99.90;;;;;;6121034;23;20470;-86
2022/10/21 11:40:46;;;;;;;3.43;3.10;;;17.20;99.90;;;;;;6124189;23;20515;-88
2022/10/21 11:43:31;;;;;;;4.93;4.20;;;17.10;99.90;;;;;;6139938;23;20547;-86
2022/10/21 11:51:59;;;;;;;6.27;3.80;;;17.00;99.90;;;;;;6129948;23;20445;-88
2022/10/21 11:54:45;;;;;;;6.77;4.83;;;17.20;99.90;;;;;;6138254;23;20511;-85
2022/10/21 11:57:39;;;;;;;5.00;3.97;;;17.10;99.90;;;;;;6101811;23;20455;-87
2022/10/21 12:08:17;;;;;;;6.00;5.50;;;17.40;99.90;;;;;;6123514;23;20447;-86
2022/10/21 12:13:32;;;;;;;6.27;4.77;;;17.30;99.90;;;;;;6102540;23;20691;-86
2022/10/21 12:16:25;;;;;;;5.47;4.73;;;17.50;99.90;;;;;;6129197;23;20479;-87
2022/10/21 12:18:56;;;;;;;7.40;5.30;;;17.70;99.90;;;;;;6123486;23;20479;-87
2022/10/21 12:21:27;;;;;;;8.57;5.50;;;18.00;99.90;;;;;;6139710;23;20823;-87
2022/10/21 12:24:38;;;;;;;11.00;4.67;;;17.90;99.90;;;;;;6139769;23;20417;-88
2022/10/21 12:27:17;;;;;;;6.00;4.10;;;17.80;99.90;;;;;;6146647;23;20895;-88
2022/10/21 12:30:15;;;;;;;4.53;4.10;;;17.90;99.90;;;;;;6137587;23;20827;-89
2022/10/21 12:33:06;;;;;;;7.50;4.80;;;17.60;99.90;;;;;;6110897;23;20423;-85
2022/10/21 12:35:46;;;;;;;7.20;4.97;;;17.40;99.90;;;;;;6113606;23;20401;-87
2022/10/21 12:38:20;;;;;;;11.80;5.87;;;17.50;99.90;;;;;;6141284;23;20448;-89
2022/10/21 12:41:23;;;;;;;10.30;5.53;;;17.30;99.90;;;;;;6114343;22;20401;-88
2022/10/21 12:44:01;;;;;;;6.37;4.90;;;17.40;99.90;;;;;;6138132;23;20875;-87
2022/10/21 12:46:43;;;;;;;6.93;5.13;;;17.80;99.90;;;;;;6136274;23;20470;-87
2022/10/21 12:49:25;;;;;;;7.90;5.13;;;18.00;99.90;;;;;;6109506;23;20381;-88
2022/10/21 12:52:12;;;;;;;5.20;4.67;;;18.10;99.90;;;;;;6134078;23;20396;-88
2022/10/21 12:54:59;;;;;;;5.73;4.47;;;18.60;99.90;;;;;;6138209;23;20389;-88
2022/10/21 12:57:32;;;;;;;10.17;5.23;;;18.70;99.90;;;;;;6114894;23;20380;-88
2022/10/21 13:00:21;;;;;;;6.17;4.60;;;18.30;99.90;;;;;;6140289;23;20368;-86
2022/10/21 13:03:07;;;;;;;6.23;4.37;;;18.20;99.90;;;;;;6136425;23;20451;-88
2022/10/21 13:05:40;;;;;;;6.40;5.33;;;18.00;99.90;;;;;;6133008;23;20680;-85
2022/10/21 13:08:27;;;;;;;7.63;4.23;;;17.90;99.90;;;;;;6110803;23;20373;-89
2022/10/21 13:11:11;;;;;;;5.73;4.07;;;17.60;99.90;;;;;;6113914;23;20369;-87
2022/10/21 13:13:43;;;;;;;7.93;6.00;;;17.60;99.90;;;;;;6139059;23;20415;-87
2022/10/21 13:16:24;;;;;;;6.60;5.37;;;17.70;99.90;;;;;;6114442;23;20435;-89
2022/10/21 13:19:00;;;;;;;6.17;5.17;;;17.80;99.90;;;;;;6113345;23;20415;-87
2022/10/21 13:21:41;;;;;;;7.30;5.60;;;17.80;99.90;;;;;;6114855;23;20430;-87
2022/10/21 13:24:22;;;;;;;7.83;5.60;;;17.50;99.90;;;;;;6113182;23;20380;-87
2022/10/21 13:26:52;;;;;;;6.50;5.07;;;17.40;99.90;;;;;;6114187;23;20412;-86
2022/10/21 13:29:35;;;;;;;6.90;6.30;;;17.30;99.90;;;;;;6113067;23;20450;-89
2022/10/21 13:32:14;;;;;;;4.73;4.33;;;17.20;99.90;;;;;;6138242;23;20404;-85
2022/10/21 13:34:55;;;;;;;7.23;5.33;;;17.20;99.90;;;;;;6111103;23;20412;-87
2022/10/21 13:37:41;;;;;;;6.63;5.10;;;17.10;99.90;;;;;;6138982;23;20391;-88
2022/10/21 13:40:18;;;;;;;5.97;5.10;;;17.20;99.90;;;;;;6139042;23;20552;-89
2022/10/21 13:42:54;;;;;;;7.30;5.00;;;17.20;99.90;;;;;;6113960;23;20389;-86
2022/10/21 13:45:31;;;;;;;6.03;4.73;;;17.10;99.90;;;;;;6239282;23;20415;-87
2022/10/21 13:48:04;;;;;;;6.20;5.03;;;16.90;99.90;;;;;;6137830;23;20435;-88
2022/10/21 13:50:41;;;;;;;5.73;5.03;;;16.70;99.90;;;;;;6132622;23;20369;-87
2022/10/21 13:53:39;;;;;;;4.93;4.43;;;16.70;99.90;;;;;;6135239;23;20508;-87
2022/10/21 13:56:21;;;;;;;9.67;5.43;;;16.60;99.90;;;;;;6113149;23;20438;-86
2022/10/21 13:58:51;;;;;;;6.70;4.97;;;16.50;99.90;;;;;;6135722;23;20458;-86
2022/10/21 14:01:24;;;;;;;7.47;6.07;;;16.50;99.90;;;;;;6142974;22;20511;-88
2022/10/21 14:03:53;;;;;;;6.10;5.10;;;16.50;99.90;;;;;;6265320;22;20408;-84
2022/10/21 14:06:31;;;;;;;15.20;5.03;;;16.50;99.90;;;;;;6267661;22;20428;-85
2022/10/21 14:09:00;;;;;;;13.53;6.90;;;16.60;99.90;;;;;;6262258;22;20391;-85
2022/10/21 14:11:31;;;;;;;6.30;5.67;;;16.70;99.90;;;;;;6260789;22;20414;-87
2022/10/21 14:14:08;;;;;;;8.63;5.73;;;16.60;99.90;;;;;;6260858;22;20392;-90
2022/10/21 14:16:41;;;;;;;7.37;4.40;;;16.30;99.90;;;;;;6261487;23;20369;-88
2022/10/21 14:19:19;;;;;;;8.60;5.33;;;16.00;99.90;;;;;;6264738;22;20423;-86
2022/10/21 14:21:51;;;;;;;7.37;5.30;;;15.90;99.90;;;;;;6260978;23;20381;-87
2022/10/21 14:24:38;;;;;;;5.50;5.00;;;16.10;99.90;;;;;;6263944;22;20356;-85
2022/10/21 14:27:06;;;;;;;8.97;6.50;;;16.20;99.90;;;;;;6265372;23;20431;-87
2022/10/21 14:29:36;;;;;;;24.80;7.63;;;16.30;99.90;;;;;;6265427;22;20396;-85
2022/10/21 14:32:04;;;;;;;13.03;6.50;;;16.40;99.90;;;;;;6262254;22;20594;-84
2022/10/21 14:34:33;;;;;;;9.83;6.10;;;16.60;99.90;;;;;;6264291;22;20401;-86
2022/10/21 14:37:07;;;;;;;6.40;5.50;;;16.60;99.90;;;;;;6261471;22;20384;-88
2022/10/21 14:39:38;;;;;;;9.40;6.90;;;16.60;99.90;;;;;;6266771;22;20392;-84
2022/10/21 14:42:11;;;;;;;11.27;6.03;;;16.50;99.90;;;;;;6267327;22;20431;-88
2022/10/21 14:44:41;;;;;;;7.07;5.23;;;16.30;99.90;;;;;;6263222;23;20404;-88
2022/10/21 14:47:24;;;;;;;7.20;5.80;;;16.20;99.90;;;;;;6261024;22;20589;-86
2022/10/21 14:49:54;;;;;;;10.77;5.40;;;16.30;99.90;;;;;;6259545;22;20690;-86
2022/10/21 14:52:25;;;;;;;9.60;5.60;;;16.00;99.90;;;;;;6238083;22;20435;-85
2022/10/21 14:54:56;;;;;;;9.77;5.70;;;16.20;99.90;;;;;;6107572;23;20397;-88
2022/10/21 14:57:30;;;;;;;13.33;6.20;;;16.40;99.90;;;;;;6130960;23;20771;-87
2022/10/21 14:59:58;;;;;;;10.73;7.23;;;16.40;99.90;;;;;;6133317;23;20407;-86
2022/10/21 15:02:33;;;;;;;14.90;6.80;;;16.40;99.90;;;;;;6142522;23;20393;-85
2022/10/21 15:05:24;;;;;;;6.50;5.40;;;16.20;99.90;;;;;;6141822;23;20370;-88
2022/10/21 15:10:34;;;;;;;13.43;5.50;;;16.50;99.90;;;;;;6113575;23;20430;-84
2022/10/21 15:13:03;;;;;;;6.53;5.53;;;16.50;99.90;;;;;;6089008;23;20418;-87
2022/10/21 15:15:46;;;;;;;10.00;6.07;;;16.40;99.90;;;;;;6108002;23;20398;-85
2022/10/21 15:18:38;;;;;;;6.93;5.93;;;16.10;99.90;;;;;;6110060;23;20383;-88
2022/10/21 15:21:24;;;;;;;9.13;6.40;;;16.10;99.90;;;;;;6108210;23;20501;-85
2022/10/21 15:23:56;;;;;;;11.27;8.00;;;16.10;99.90;;;;;;6110283;23;20401;-87
2022/10/21 15:26:28;;;;;;;15.80;9.97;;;16.00;99.90;;;;;;6110199;23;20713;-87
2022/10/21 15:28:55;;;;;;;12.93;8.87;;;15.90;99.90;;;;;;6085104;23;20468;-85
2022/10/21 15:31:27;;;;;;;16.90;8.93;;;16.00;99.90;;;;;;6111842;23;20392;-89
2022/10/21 15:33:57;;;;;;;9.33;8.40;;;15.80;99.90;;;;;;6109447;23;20389;-86
2022/10/21 15:36:23;;;;;;;21.80;8.87;;;15.50;99.90;;;;;;6106134;23;20394;-86
2022/10/21 15:38:51;;;;;;;11.87;8.17;;;15.30;99.90;;;;;;6101624;23;20467;-87
2022/10/21 15:41:24;;;;;;;11.73;9.53;;;15.40;99.90;;;;;;6101543;23;20644;-86
2022/10/21 15:44:00;;;;;;;11.83;9.67;;;15.30;99.90;;;;;;6076440;23;20485;-86
2022/10/21 15:46:32;;;;;;;12.00;8.53;;;15.40;99.90;;;;;;6076754;23;20409;-88
2022/10/21 15:49:10;;;;;;;16.40;11.10;;;15.30;99.90;;;;;;6106124;23;20437;-86
2022/10/21 15:51:38;;;;;;;11.77;9.10;;;15.40;99.90;;;;;;6103756;23;20625;-86
2022/10/21 15:54:04;;;;;;;14.60;9.80;;;15.30;99.90;;;;;;6103967;23;20403;-86
2022/10/21 15:56:32;;;;;;;14.13;9.73;;;15.10;99.90;;;;;;6100466;23;20597;-85
2022/10/21 15:59:03;;;;;;;13.37;9.27;;;15.00;99.90;;;;;;6101045;23;20398;-86
2022/10/21 16:01:30;;;;;;;12.10;9.43;;;14.80;99.90;;;;;;6099294;23;20410;-85
2022/10/21 16:03:57;;;;;;;12.07;10.40;;;14.80;99.90;;;;;;6101439;23;20189;-85
2022/10/21 16:06:26;;;;;;;14.68;9.98;;;14.90;99.90;;;;;;6102078;23;20433;-84
2022/10/21 16:08:53;;;;;;;17.52;9.77;;;14.50;99.90;;;;;;6100841;23;20241;-83
2022/10/21 16:11:21;;;;;;;11.43;10.07;;;14.30;99.90;;;;;;6075129;23;20536;-85
2022/10/21 16:14:08;;;;;;;14.93;10.65;;;14.10;99.90;;;;;;6080001;23;20171;-83
2022/10/21 16:16:38;;;;;;;15.52;9.55;;;13.90;99.90;;;;;;6198648;23;20191;-83
2022/10/21 16:19:14;;;;;;;14.63;10.73;;;13.70;99.90;;;;;;6098703;23;20179;-83
2022/10/21 16:21:46;;;;;;;17.25;10.93;;;13.70;99.90;;;;;;6098994;23;20187;-84
2022/10/21 16:24:16;;;;;;;13.60;11.38;;;13.80;99.90;;;;;;6099584;23;20312;-83
2022/10/21 16:26:46;;;;;;;12.23;10.68;;;13.70;99.90;;;;;;6101674;23;20426;-85
2022/10/21 16:29:21;;;;;;;13.20;11.60;;;13.40;99.90;;;;;;6101299;23;20240;-84
2022/10/21 16:31:48;;;;;;;11.07;9.98;;;13.10;99.90;;;;;;6113261;23;20191;-84
2022/10/21 16:34:19;;;;;;;15.50;11.90;;;12.90;99.90;;;;;;6100049;23;20187;-84
2022/10/21 16:36:51;;;;;;;15.63;11.27;;;12.60;99.90;;;;;;6075827;23;20163;-85
2022/10/21 16:39:24;;;;;;;11.10;9.88;;;12.60;99.90;;;;;;6099660;23;20171;-84
2022/10/21 16:41:57;;;;;;;12.25;10.35;;;12.50;99.90;;;;;;6101228;23;20159;-84
2022/10/21 16:44:33;;;;;;;14.48;9.82;;;12.50;99.90;;;;;;6078785;23;20187;-85
2022/10/21 16:47:02;;;;;;;15.02;10.68;;;12.40;99.90;;;;;;6075373;23;20227;-83
2022/10/21 16:49:31;;;;;;;14.02;11.82;;;12.30;99.90;;;;;;6076039;23;20191;-85
2022/10/21 16:52:02;;;;;;;13.70;10.52;;;12.30;99.90;;;;;;6102351;23;20262;-83
2022/10/21 16:54:28;;;;;;;15.52;12.65;;;12.20;99.90;;;;;;6100872;23;20201;-84
2022/10/21 16:56:56;;;;;;;13.23;11.80;;;12.20;99.90;;;;;;6101413;23;20190;-83
2022/10/21 16:59:30;;;;;;;11.40;10.30;;;12.20;99.90;;;;;;6102938;23;20185;-84
2022/10/21 17:02:00;;;;;;;15.63;12.02;;;12.10;99.90;;;;;;6100636;23;20313;-84
2022/10/21 17:04:30;;;;;;;14.40;12.25;;;12.00;99.90;;;;;;6075898;23;20187;-84
2022/10/21 17:06:57;;;;;;;16.35;13.35;;;11.80;99.90;;;;;;6073912;23;20202;-84
2022/10/21 17:09:28;;;;;;;24.17;15.13;;;11.90;99.90;;;;;;6098164;23;20536;-85
2022/10/21 17:11:56;;;;;;;19.70;14.25;;;12.00;99.90;;;;;;6101462;23;20198;-86
2022/10/21 17:14:25;;;;;;;14.90;12.65;;;11.90;99.90;;;;;;6100996;23;20309;-83
2022/10/21 17:16:56;;;;;;;19.60;14.95;;;11.80;99.90;;;;;;6101406;23;20198;-83